Time;durP1;ratioP1;P1;durP2;ratioP2;P2;SDS_P1;SDS_P2;PMS_P1;PMS_P2;Temp;Humidity;BMP_temperature;BMP_pressure;BME280_temperature;BME280_humidity;BME280_pressure;Samples;Min_cycle;Max_cycle;Signal;HPM_P1;HPM_P2
2022/03/20 00:02:43;;;;;;;21.80;15.97;;;;;;;2.26;74.23;95599.81;5066042;28;20197;-64
2022/03/20 00:05:29;;;;;;;23.80;16.77;;;;;;;2.25;74.12;95597.50;5084450;28;20193;-64
2022/03/20 00:08:15;;;;;;;25.80;17.80;;;;;;;2.18;73.77;95605.59;5079487;28;20687;-64
2022/03/20 00:11:02;;;;;;;27.03;17.47;;;;;;;2.15;74.37;95604.44;5077338;28;20211;-64
2022/03/20 00:13:48;;;;;;;26.47;17.27;;;;;;;2.12;75.00;95597.09;5093270;28;20189;-64
2022/03/20 00:16:34;;;;;;;28.53;17.57;;;;;;;2.16;74.23;95603.28;5075108;28;20570;-64
2022/03/20 00:19:20;;;;;;;24.27;17.20;;;;;;;2.14;74.53;95599.41;5082589;28;20212;-64
2022/03/20 00:22:06;;;;;;;30.50;18.10;;;;;;;2.16;75.08;95594.41;5084678;28;20254;-64
2022/03/20 00:24:53;;;;;;;26.47;18.13;;;;;;;2.20;74.78;95593.28;5053525;28;20780;-64
2022/03/20 00:27:39;;;;;;;26.80;18.27;;;;;;;2.05;75.38;95591.72;5086756;28;20193;-64
2022/03/20 00:30:25;;;;;;;29.23;17.87;;;;;;;2.07;76.83;95586.72;5057997;28;20210;-64
2022/03/20 00:33:11;;;;;;;28.63;18.20;;;;;;;2.05;76.92;95590.97;5093091;28;20285;-64
2022/03/20 00:35:57;;;;;;;24.47;18.03;;;;;;;1.89;77.49;95590.56;5069144;28;20255;-64
2022/03/20 00:38:43;;;;;;;31.60;19.40;;;;;;;1.63;80.43;95582.88;5083527;28;20204;-64
2022/03/20 00:41:29;;;;;;;29.53;19.93;;;;;;;1.57;82.09;95582.47;5082547;28;20276;-64
2022/03/20 00:44:15;;;;;;;28.93;19.33;;;;;;;1.47;81.55;95598.59;5072960;28;20205;-64
2022/03/20 00:47:01;;;;;;;28.13;18.87;;;;;;;1.53;83.31;95573.63;5058279;28;20197;-64
2022/03/20 00:49:47;;;;;;;28.13;19.40;;;;;;;1.49;84.20;95577.47;5070517;28;20213;-64
2022/03/20 00:52:34;;;;;;;26.87;18.90;;;;;;;1.35;83.79;95575.50;5072118;28;21004;-64
2022/03/20 00:55:20;;;;;;;29.03;20.27;;;;;;;1.26;84.33;95583.16;5083798;28;20197;-64
2022/03/20 00:58:06;;;;;;;28.80;20.10;;;;;;;1.14;87.64;95594.28;5073051;28;20611;-64
2022/03/20 01:00:52;;;;;;;30.73;19.97;;;;;;;1.26;87.31;95580.47;5091479;28;20207;-64
2022/03/20 01:03:38;;;;;;;28.57;19.43;;;;;;;1.21;85.07;95586.22;5064742;28;20553;-63
2022/03/20 01:06:23;;;;;;;28.93;18.63;;;;;;;1.22;86.67;95574.34;5083037;28;20194;-64
2022/03/20 01:09:09;;;;;;;29.97;19.20;;;;;;;1.39;85.66;95586.28;5076353;28;20283;-64
2022/03/20 01:11:56;;;;;;;25.97;19.23;;;;;;;1.35;87.87;95580.13;5054683;28;20244;-64
2022/03/20 01:14:42;;;;;;;25.83;18.03;;;;;;;1.09;86.87;95581.19;5063980;28;20813;-64
2022/03/20 01:17:29;;;;;;;26.97;18.63;;;;;;;1.24;87.73;95588.16;5078135;28;20203;-64
2022/03/20 01:20:15;;;;;;;28.53;19.27;;;;;;;1.35;86.75;95575.50;5074545;28;20212;-64
2022/03/20 01:23:00;;;;;;;27.43;19.83;;;;;;;1.40;86.97;95582.44;5052361;28;20281;-63
2022/03/20 01:25:49;;;;;;;31.03;20.00;;;;;;;1.57;87.35;95581.69;5073497;28;20196;-64
2022/03/20 01:28:34;;;;;;;26.10;18.80;;;;;;;1.59;86.10;95576.72;5073339;28;20565;-64
2022/03/20 01:31:20;;;;;;;28.70;19.30;;;;;;;1.37;86.20;95583.19;5071358;28;20268;-63
2022/03/20 01:34:07;;;;;;;27.17;18.40;;;;;;;1.01;87.69;95580.41;5054970;28;20196;-63
2022/03/20 01:36:53;;;;;;;30.13;19.00;;;;;;;0.54;88.29;95577.91;5081787;28;20200;-64
2022/03/20 01:39:39;;;;;;;26.70;18.70;;;;;;;0.36;90.63;95576.25;5071677;28;20194;-64
2022/03/20 01:42:24;;;;;;;34.70;20.50;;;;;;;0.95;91.45;95565.78;5087178;28;20246;-64
2022/03/20 01:45:19;;;;;;;24.13;18.57;;;;;;;1.48;87.36;95575.94;5058322;28;20214;-64
2022/03/20 01:48:05;;;;;;;30.30;18.53;;;;;;;1.25;87.30;95573.56;5059958;28;20228;-64
2022/03/20 01:50:50;;;;;;;23.90;17.97;;;;;;;1.04;89.58;95566.22;5075762;28;20690;-64
2022/03/20 01:53:37;;;;;;;28.90;18.67;;;;;;;0.72;89.69;95567.22;5070642;28;20204;-64
2022/03/20 01:56:23;;;;;;;29.23;18.70;;;;;;;0.50;91.72;95579.81;5070997;28;20203;-64
2022/03/20 01:59:09;;;;;;;28.33;18.77;;;;;;;0.43;93.93;95569.00;5077017;28;20192;-64
2022/03/20 02:01:55;;;;;;;28.67;19.27;;;;;;;0.65;93.13;95575.25;5084237;28;20201;-64
2022/03/20 02:04:42;;;;;;;31.83;20.07;;;;;;;0.71;92.86;95574.50;5077835;28;20741;-64
2022/03/20 02:07:29;;;;;;;28.63;20.03;;;;;;;0.48;93.74;95574.03;5082266;28;20205;-64
2022/03/20 02:10:16;;;;;;;28.53;20.20;;;;;;;0.50;94.45;95562.91;5082171;28;20266;-64
2022/03/20 02:13:02;;;;;;;28.73;20.00;;;;;;;0.69;94.34;95566.09;5062265;28;20193;-64
2022/03/20 02:15:51;;;;;;;28.20;19.10;;;;;;;0.85;92.28;95569.22;5084828;28;20327;-64
2022/03/20 02:18:38;;;;;;;30.30;20.03;;;;;;;0.96;91.62;95564.66;5072063;28;20213;-64
2022/03/20 02:21:46;;;;;;;27.83;19.03;;;;;;;1.24;90.31;95572.00;5074135;28;20228;-64
2022/03/20 02:24:41;;;;;;;30.87;19.63;;;;;;;1.24;89.52;95564.72;5070979;28;20272;-63
2022/03/20 02:27:27;;;;;;;28.80;20.47;;;;;;;1.10;89.14;95551.22;5064666;28;20190;-64
2022/03/20 02:30:16;;;;;;;26.83;19.77;;;;;;;1.15;89.09;95558.19;5089464;28;20771;-64
2022/03/20 02:33:02;;;;;;;29.00;19.13;;;;;;;0.81;89.78;95563.06;5089442;28;20201;-64
2022/03/20 02:35:48;;;;;;;26.43;18.57;;;;;;;0.73;93.01;95561.47;5090529;28;20189;-64
2022/03/20 02:38:34;;;;;;;26.20;18.43;;;;;;;0.78;93.40;95568.44;5068821;28;20229;-63
2022/03/20 02:41:20;;;;;;;23.93;18.30;;;;;;;0.59;93.57;95574.88;5078204;28;20584;-64
2022/03/20 02:44:08;;;;;;;31.33;19.03;;;;;;;0.29;94.10;95573.53;5069214;28;20189;-64
2022/03/20 02:46:54;;;;;;;26.40;20.17;;;;;;;0.13;94.77;95567.69;5068818;28;20201;-64
2022/03/20 02:49:40;;;;;;;30.17;19.60;;;;;;;0.25;97.37;95565.47;5068818;28;20577;-64
2022/03/20 02:52:29;;;;;;;27.10;19.03;;;;;;;-0.39;98.57;95577.63;5066508;28;20221;-64
2022/03/20 02:55:20;;;;;;;27.77;19.00;;;;;;;-0.22;100.00;95574.31;5070273;28;20197;-64
2022/03/20 02:58:09;;;;;;;26.57;18.80;;;;;;;-0.16;99.70;95567.50;5065814;28;20189;-64
2022/03/20 03:00:57;;;;;;;26.07;19.47;;;;;;;-0.34;100.00;95576.53;5085816;28;20217;-64
2022/03/20 03:03:45;;;;;;;30.83;20.87;;;;;;;-0.06;100.00;95572.16;5075243;28;20661;-64
2022/03/20 03:06:31;;;;;;;30.53;19.57;;;;;;;-0.52;100.00;95587.09;5069357;28;20667;-64
2022/03/20 03:12:22;;;;;;;30.83;21.37;;;;;;;-0.64;100.00;95582.00;5070853;28;20276;-64
2022/03/20 03:15:20;;;;;;;29.87;20.83;;;;;;;-0.59;100.00;95586.25;5087784;28;20563;-64
2022/03/20 03:18:06;;;;;;;28.00;19.80;;;;;;;-0.84;100.00;95587.91;5067725;28;20218;-64
2022/03/20 03:20:52;;;;;;;29.90;21.30;;;;;;;-0.66;100.00;95578.91;5052803;28;20205;-64
2022/03/20 03:23:38;;;;;;;32.33;20.90;;;;;;;-0.49;100.00;95599.78;5087786;28;20200;-64
2022/03/20 03:26:24;;;;;;;32.17;20.70;;;;;;;-0.28;100.00;95593.81;5080396;28;20196;-64
2022/03/20 03:29:10;;;;;;;28.60;21.07;;;;;;;-0.36;100.00;95608.34;5083141;28;20207;-64
2022/03/20 03:31:56;;;;;;;34.23;20.50;;;;;;;-0.69;100.00;95611.06;5073107;28;20300;-63
2022/03/20 03:37:47;;;;;;;28.67;19.43;;;;;;;-0.38;100.00;95610.59;5079702;28;20373;-64
2022/03/20 03:40:33;;;;;;;33.33;21.20;;;;;;;-0.15;100.00;95611.97;5069014;28;20296;-64
2022/03/20 03:43:19;;;;;;;30.43;19.60;;;;;;;-0.56;100.00;95615.78;5088660;28;20250;-64
2022/03/20 03:46:04;;;;;;;26.03;18.87;;;;;;;-0.45;100.00;95629.31;5072797;28;20193;-63
2022/03/20 03:48:50;;;;;;;29.10;19.80;;;;;;;-0.49;100.00;95615.88;5071655;28;20188;-64
2022/03/20 03:51:36;;;;;;;30.90;21.33;;;;;;;-0.58;100.00;95620.78;5059091;28;20698;-64
2022/03/20 03:54:22;;;;;;;31.47;20.87;;;;;;;-0.44;100.00;95610.16;5073686;28;20728;-64
2022/03/20 03:57:09;;;;;;;28.17;21.03;;;;;;;-0.53;100.00;95612.41;5086709;28;20250;-64
2022/03/20 03:59:55;;;;;;;28.77;20.20;;;;;;;-0.41;100.00;95622.09;5051603;28;20210;-64
2022/03/20 04:02:41;;;;;;;27.97;19.47;;;;;;;-0.61;100.00;95612.69;5060493;28;20193;-64
2022/03/20 04:05:28;;;;;;;34.70;20.70;;;;;;;-0.46;100.00;95615.13;5078948;28;20284;-64
2022/03/20 04:08:15;;;;;;;29.30;20.73;;;;;;;-0.53;100.00;95611.63;5075673;28;20193;-63
2022/03/20 04:11:01;;;;;;;28.00;19.10;;;;;;;-0.34;100.00;95614.09;5062188;28;20605;-64
2022/03/20 04:13:47;;;;;;;30.37;21.87;;;;;;;-0.50;100.00;95605.50;5073909;28;20205;-64
2022/03/20 04:16:33;;;;;;;32.07;20.87;;;;;;;-0.43;100.00;95609.03;5060675;28;20205;-63
2022/03/20 04:19:19;;;;;;;31.13;20.77;;;;;;;-0.31;100.00;95619.50;5067853;28;20205;-64
2022/03/20 04:22:05;;;;;;;32.93;21.13;;;;;;;-0.32;100.00;95617.16;5051218;28;20196;-63
2022/03/20 04:24:52;;;;;;;30.70;21.07;;;;;;;-0.69;100.00;95624.47;5056057;28;20201;-64
2022/03/20 04:27:40;;;;;;;28.53;20.37;;;;;;;-0.61;100.00;95626.09;5090720;28;20227;-63
2022/03/20 04:30:26;;;;;;;34.10;22.43;;;;;;;-0.56;100.00;95629.22;5078454;28;20212;-63
2022/03/20 04:33:13;;;;;;;29.83;20.77;;;;;;;-0.65;100.00;95615.34;5072271;28;20193;-64
2022/03/20 04:35:59;;;;;;;28.03;19.50;;;;;;;-0.65;100.00;95626.06;5079960;28;20287;-64
2022/03/20 04:38:45;;;;;;;33.53;20.57;;;;;;;-0.88;100.00;95621.97;5075406;28;20188;-63
2022/03/20 04:41:32;;;;;;;32.23;21.73;;;;;;;-1.11;100.00;95632.03;5081292;28;20236;-64
2022/03/20 04:44:18;;;;;;;29.20;20.53;;;;;;;-1.04;100.00;95632.13;5063400;28;20204;-64
2022/03/20 04:47:06;;;;;;;32.47;20.53;;;;;;;-1.15;100.00;95641.94;5084351;28;20197;-64
2022/03/20 04:59:24;;;;;;;35.53;20.83;;;;;;;-0.85;100.00;95648.06;5046535;28;20702;-64
2022/03/20 05:02:10;;;;;;;28.40;20.57;;;;;;;-0.78;100.00;95638.16;5067053;28;20733;-64
2022/03/20 05:04:56;;;;;;;30.40;20.50;;;;;;;-0.78;100.00;95637.41;5072212;28;20277;-64
2022/03/20 05:07:42;;;;;;;29.77;21.33;;;;;;;-0.70;100.00;95636.34;5077651;28;20685;-63
2022/03/20 05:13:33;;;;;;;32.93;21.53;;;;;;;-0.86;100.00;95660.69;5070004;28;20977;-64
2022/03/20 05:16:19;;;;;;;34.07;22.17;;;;;;;-1.18;100.00;95664.88;5070612;28;20193;-64
2022/03/20 05:19:05;;;;;;;31.87;21.17;;;;;;;-0.72;100.00;95668.13;5076764;28;20639;-64
2022/03/20 05:21:51;;;;;;;34.03;23.37;;;;;;;-0.84;100.00;95673.72;5090465;28;20582;-64
2022/03/20 05:24:38;;;;;;;31.03;21.97;;;;;;;-0.89;100.00;95672.13;5083870;28;20238;-64
2022/03/20 05:27:24;;;;;;;31.57;22.03;;;;;;;-1.19;100.00;95690.13;5083429;28;20201;-64
2022/03/20 05:30:10;;;;;;;29.77;20.47;;;;;;;-1.06;100.00;95688.00;5091509;28;20694;-64
2022/03/20 05:32:58;;;;;;;28.33;21.10;;;;;;;-0.91;100.00;95673.63;5091226;28;20199;-63
2022/03/20 05:35:45;;;;;;;30.60;20.77;;;;;;;-0.77;100.00;95679.94;5078099;28;20200;-64
2022/03/20 05:38:31;;;;;;;30.43;21.80;;;;;;;-0.59;100.00;95678.22;5070037;28;20734;-64
2022/03/20 05:44:24;;;;;;;28.07;19.87;;;;;;;-1.23;100.00;95675.91;5067085;28;20657;-64
2022/03/20 05:47:10;;;;;;;27.50;19.83;;;;;;;-1.40;100.00;95685.25;5066477;28;20279;-64
2022/03/20 05:50:01;;;;;;;32.33;21.07;;;;;;;-1.11;100.00;95694.44;5075325;28;20287;-64
2022/03/20 05:52:46;;;;;;;32.00;21.10;;;;;;;-1.06;100.00;95694.13;5075827;28;20692;-64
2022/03/20 05:58:37;;;;;;;30.40;21.37;;;;;;;-0.94;100.00;95693.13;5056349;28;20240;-64
2022/03/20 06:01:24;;;;;;;32.37;20.90;;;;;;;-0.88;100.00;95689.75;5059172;28;20232;-64
2022/03/20 06:04:10;;;;;;;33.23;21.67;;;;;;;-1.23;100.00;95689.31;5074927;28;20196;-64
2022/03/20 06:06:58;;;;;;;29.80;21.20;;;;;;;-0.83;100.00;95694.78;5062958;28;20197;-64
2022/03/20 06:09:43;;;;;;;30.60;21.23;;;;;;;-0.52;100.00;95710.50;5075120;28;20629;-63
2022/03/20 06:12:29;;;;;;;27.30;19.97;;;;;;;-0.42;100.00;95709.06;5073551;28;20200;-64
2022/03/20 06:15:15;;;;;;;30.57;21.73;;;;;;;-0.49;100.00;95712.44;5070760;28;20659;-64
2022/03/20 06:18:07;;;;;;;30.53;21.13;;;;;;;-0.16;100.00;95704.38;5062212;28;20220;-64
2022/03/20 06:20:54;;;;;;;28.90;21.17;;;;;;;-0.14;100.00;95702.06;5074469;28;20197;-66
2022/03/20 06:23:39;;;;;;;31.10;20.40;;;;;;;-0.14;100.00;95707.44;5087267;28;20188;-64
2022/03/20 06:26:25;;;;;;;32.50;20.23;;;;;;;0.15;100.00;95711.19;5070107;28;20240;-64
2022/03/20 06:29:11;;;;;;;24.33;18.17;;;;;;;0.44;99.42;95712.94;5057011;28;20201;-64
2022/03/20 06:31:57;;;;;;;25.93;17.93;;;;;;;0.63;97.85;95718.09;5054773;28;20689;-64
2022/03/20 06:34:43;;;;;;;27.23;18.60;;;;;;;0.75;95.39;95707.03;5076639;28;20564;-64
2022/03/20 06:37:35;;;;;;;29.53;18.90;;;;;;;0.79;94.13;95713.22;5068132;28;20189;-64
2022/03/20 06:40:22;;;;;;;27.87;17.47;;;;;;;0.91;92.95;95722.88;5073757;28;20213;-64
2022/03/20 06:43:09;;;;;;;27.00;18.10;;;;;;;0.95;92.64;95711.00;5068529;28;20189;-63
2022/03/20 06:45:56;;;;;;;25.40;18.20;;;;;;;1.06;92.89;95714.53;5068146;28;20303;-64
2022/03/20 06:48:43;;;;;;;23.97;16.97;;;;;;;1.36;89.93;95724.28;5068306;28;20566;-64
2022/03/20 06:51:29;;;;;;;23.63;17.00;;;;;;;1.76;87.72;95722.13;5062006;28;20876;-63
2022/03/20 06:54:18;;;;;;;23.37;17.07;;;;;;;2.02;85.19;95718.34;5063695;28;20204;-64
2022/03/20 06:57:04;;;;;;;22.20;15.90;;;;;;;2.21;82.90;95729.53;5064155;28;20231;-64
2022/03/20 06:59:51;;;;;;;23.73;17.63;;;;;;;2.21;82.20;95726.06;5050704;28;20232;-64
2022/03/20 07:02:38;;;;;;;28.43;15.73;;;;;;;2.68;81.18;95736.47;5073953;28;20276;-64
2022/03/20 07:05:24;;;;;;;24.63;17.87;;;;;;;2.88;79.10;95731.47;5064019;28;20302;-64
2022/03/20 07:08:10;;;;;;;26.30;16.97;;;;;;;2.95;77.63;95729.56;5062614;28;20224;-64
2022/03/20 07:10:56;;;;;;;22.93;16.23;;;;;;;2.89;77.39;95747.28;5061866;28;20217;-65
2022/03/20 07:13:49;;;;;;;23.70;16.77;;;;;;;2.76;78.66;95746.13;5064763;28;20233;-64
2022/03/20 07:16:36;;;;;;;22.83;16.00;;;;;;;2.88;79.50;95736.88;5061915;28;20204;-64
2022/03/20 07:19:22;;;;;;;26.83;17.37;;;;;;;3.02;78.51;95745.69;5064599;28;20711;-64
2022/03/20 07:22:08;;;;;;;24.23;16.70;;;;;;;3.14;78.50;95764.19;5053980;28;20628;-64
2022/03/20 07:29:29;;;;;;;23.50;17.17;;;;;;;3.29;78.23;95754.16;5073384;28;20228;-64
2022/03/20 07:31:07;;;;;;;21.33;14.87;;;;;;;3.57;74.06;95759.47;5061203;28;20282;-61
2022/03/20 07:33:54;;;;;;;21.53;15.93;;;;;;;3.72;75.76;95754.81;5065089;28;20552;-61
2022/03/20 07:36:40;;;;;;;20.93;15.27;;;;;;;3.85;73.04;95756.69;5080161;28;20685;-61
2022/03/20 07:39:26;;;;;;;21.50;14.83;;;;;;;3.93;71.65;95763.56;5059279;28;20256;-62
2022/03/20 07:42:13;;;;;;;24.43;15.10;;;;;;;4.04;71.09;95760.84;5064146;28;20182;-61
2022/03/20 07:45:03;;;;;;;20.53;15.53;;;;;;;4.16;70.58;95766.53;5057873;28;20248;-62
2022/03/20 07:47:48;;;;;;;23.00;15.57;;;;;;;4.28;70.18;95773.41;5057745;28;20262;-62
2022/03/20 07:50:35;;;;;;;21.87;14.60;;;;;;;4.61;68.97;95764.72;5081016;28;20243;-62
2022/03/20 07:53:21;;;;;;;20.90;15.00;;;;;;;4.82;68.32;95767.25;5087334;28;20185;-62
2022/03/20 07:56:07;;;;;;;23.43;15.00;;;;;;;5.01;68.20;95755.88;5057320;28;20640;-61
2022/03/20 07:58:54;;;;;;;20.67;14.97;;;;;;;5.25;67.32;95760.31;5040885;28;20185;-61
2022/03/20 08:01:40;;;;;;;18.57;14.43;;;;;;;5.55;67.72;95768.50;5081477;28;20225;-63
2022/03/20 08:04:26;;;;;;;20.97;14.57;;;;;;;5.79;67.45;95766.69;5077711;28;20216;-63
2022/03/20 08:07:12;;;;;;;21.03;15.10;;;;;;;6.01;65.08;95763.38;5052176;28;20197;-62
2022/03/20 08:09:58;;;;;;;23.03;15.37;;;;;;;6.21;65.29;95770.88;5058241;28;20248;-62
2022/03/20 08:12:44;;;;;;;20.17;14.93;;;;;;;6.50;63.72;95770.06;5083699;28;20865;-63
2022/03/20 08:15:30;;;;;;;19.97;15.23;;;;;;;6.74;62.07;95766.22;5071794;28;20190;-62
2022/03/20 08:18:16;;;;;;;16.10;13.40;;;;;;;6.91;59.06;95789.63;5062392;28;20586;-62
2022/03/20 08:21:02;;;;;;;20.53;14.73;;;;;;;7.02;59.89;95765.00;5064996;28;20671;-62
2022/03/20 08:23:48;;;;;;;18.50;13.97;;;;;;;7.33;59.29;95772.63;5067737;28;20189;-62
2022/03/20 08:26:35;;;;;;;17.73;14.40;;;;;;;7.42;58.22;95768.59;5065872;28;20677;-63
2022/03/20 08:29:20;;;;;;;16.33;12.63;;;;;;;7.48;54.41;95767.72;5066855;28;20203;-63
2022/03/20 08:32:07;;;;;;;15.33;12.90;;;;;;;7.74;56.46;95769.53;5052091;28;20222;-63
2022/03/20 08:34:53;;;;;;;19.43;13.30;;;;;;;8.07;57.20;95770.47;5052056;28;20200;-63
2022/03/20 08:37:48;;;;;;;17.10;12.83;;;;;;;8.00;55.09;95774.09;5075444;28;20879;-63
2022/03/20 08:40:34;;;;;;;18.07;12.47;;;;;;;8.19;53.25;95772.53;5057197;28;20209;-63
2022/03/20 08:43:20;;;;;;;17.10;13.50;;;;;;;8.16;53.51;95770.66;5077608;28;20189;-63
2022/03/20 08:46:05;;;;;;;17.43;13.30;;;;;;;8.43;52.58;95779.47;5084699;28;20193;-63
2022/03/20 08:48:51;;;;;;;14.93;12.67;;;;;;;8.55;52.09;95787.72;5067773;28;20377;-63
2022/03/20 08:51:43;;;;;;;18.30;12.60;;;;;;;8.72;51.89;95774.16;5057294;28;20238;-63
2022/03/20 08:54:29;;;;;;;17.30;12.70;;;;;;;9.04;51.00;95780.41;5036677;28;20596;-62
2022/03/20 08:57:16;;;;;;;17.47;11.47;;;;;;;9.19;50.00;95773.41;5059147;28;20205;-63
2022/03/20 09:00:02;;;;;;;15.60;11.73;;;;;;;9.29;49.59;95772.38;5070813;28;20218;-65
2022/03/20 09:02:50;;;;;;;13.77;11.43;;;;;;;9.34;49.80;95779.25;5065976;28;20198;-64
2022/03/20 09:05:36;;;;;;;15.87;11.77;;;;;;;9.44;49.83;95778.22;5067000;28;20291;-64
2022/03/20 09:08:22;;;;;;;15.37;11.57;;;;;;;9.54;49.28;95777.19;5074847;28;20296;-65
2022/03/20 09:11:07;;;;;;;16.20;11.53;;;;;;;9.99;48.53;95777.94;5059278;28;20222;-64
2022/03/20 09:13:53;;;;;;;17.80;12.57;;;;;;;10.00;47.62;95778.69;5075647;28;20646;-65
2022/03/20 09:19:44;;;;;;;15.43;10.60;;;;;;;10.41;47.21;95784.19;5084065;28;20272;-64
2022/03/20 09:22:29;;;;;;;16.30;10.47;;;;;;;10.55;44.12;95775.59;5071600;28;20178;-65
2022/03/20 09:25:15;;;;;;;14.47;11.10;;;;;;;10.63;44.20;95774.94;5068605;28;20225;-65
2022/03/20 09:28:03;;;;;;;12.50;9.87;;;;;;;10.60;44.63;95772.31;5052983;28;20208;-65
2022/03/20 09:30:49;;;;;;;11.83;10.03;;;;;;;10.62;43.60;95775.38;5074809;28;20625;-65
2022/03/20 09:33:35;;;;;;;14.57;10.80;;;;;;;11.01;43.13;95777.69;5068106;28;20197;-65
2022/03/20 09:36:22;;;;;;;15.70;10.53;;;;;;;11.24;42.63;95774.59;5083849;28;20303;-65
2022/03/20 09:39:07;;;;;;;15.70;9.57;;;;;;;11.06;42.57;95781.81;5053564;28;20213;-65
2022/03/20 09:41:55;;;;;;;11.80;10.30;;;;;;;10.77;42.05;95777.25;5074856;28;20612;-65
2022/03/20 09:44:41;;;;;;;13.67;10.33;;;;;;;11.19;43.47;95777.09;5069808;28;20668;-65
2022/03/20 09:47:27;;;;;;;12.77;10.67;;;;;;;11.14;42.70;95772.97;5056821;28;20193;-65
2022/03/20 09:50:14;;;;;;;13.97;10.37;;;;;;;11.15;42.01;95771.75;5071408;28;20288;-65
2022/03/20 09:53:01;;;;;;;13.23;10.13;;;;;;;11.71;41.10;95778.09;5078193;28;20188;-65
2022/03/20 09:55:47;;;;;;;12.30;10.00;;;;;;;11.47;41.04;95768.72;5089066;28;20193;-65
2022/03/20 09:58:33;;;;;;;16.13;10.30;;;;;;;11.73;41.45;95772.19;5075175;28;20218;-65
2022/03/20 10:01:19;;;;;;;14.30;9.63;;;;;;;11.83;40.96;95771.81;5081850;28;20244;-65
2022/03/20 10:04:10;;;;;;;13.97;9.73;;;;;;;11.95;40.33;95770.25;5054485;28;20231;-64
2022/03/20 10:06:58;;;;;;;12.33;9.40;;;;;;;11.89;40.32;95775.53;5071142;28;20193;-65
2022/03/20 10:10:07;;;;;;;13.00;10.37;;;;;;;11.89;40.50;95772.03;5072727;28;20359;-65
2022/03/20 10:12:56;;;;;;;11.53;9.20;;;;;;;11.96;39.97;95753.38;5069063;28;20280;-65
2022/03/20 10:15:44;;;;;;;11.13;9.93;;;;;;;12.23;39.86;95763.75;5066542;28;20271;-65
2022/03/20 10:18:33;;;;;;;15.43;10.40;;;;;;;12.26;40.22;95760.13;5078744;28;20680;-65
2022/03/20 10:21:19;;;;;;;10.67;9.23;;;;;;;12.51;38.84;95779.16;5077773;28;20297;-65
2022/03/20 10:24:14;;;;;;;11.53;9.87;;;;;;;12.29;37.88;95764.69;5069664;28;20260;-65
2022/03/20 10:27:00;;;;;;;13.73;9.50;;;;;;;12.26;36.81;95768.34;5061901;28;20201;-65
2022/03/20 10:29:51;;;;;;;11.90;8.83;;;;;;;12.86;37.65;95771.56;5068706;28;20323;-64
2022/03/20 10:32:47;;;;;;;11.50;8.90;;;;;;;13.04;35.92;95763.44;5065309;28;20198;-65
2022/03/20 10:35:33;;;;;;;15.57;8.97;;;;;;;12.57;34.00;95754.66;5075284;28;20201;-65
2022/03/20 10:38:36;;;;;;;10.07;8.50;;;;;;;12.53;32.50;95762.25;5069284;28;20220;-65
2022/03/20 10:41:34;;;;;;;8.67;7.50;;;;;;;12.87;32.71;95760.16;5080274;28;20575;-65
2022/03/20 10:44:26;;;;;;;11.20;8.47;;;;;;;12.75;32.54;95762.97;5071277;28;20686;-65
2022/03/20 10:47:13;;;;;;;12.03;9.37;;;;;;;12.64;34.95;95762.63;5041992;28;20207;-65
2022/03/20 10:50:06;;;;;;;12.73;9.40;;;;;;;13.02;36.15;95761.13;5055898;28;20565;-65
2022/03/20 10:53:08;;;;;;;14.97;9.70;;;;;;;13.12;35.71;95761.91;5032839;28;20230;-65
2022/03/20 10:56:03;;;;;;;12.13;9.00;;;;;;;13.05;36.25;95756.72;5049279;28;20294;-65
2022/03/20 10:58:49;;;;;;;14.40;9.13;;;;;;;13.22;35.79;95758.75;5071614;28;20322;-65
2022/03/20 11:01:36;;;;;;;12.17;9.50;;;;;;;13.17;35.26;95756.63;5074770;28;20662;-65
2022/03/20 11:04:23;;;;;;;13.20;9.67;;;;;;;13.04;35.39;95760.69;5071524;28;20217;-65
2022/03/20 11:07:11;;;;;;;11.87;9.20;;;;;;;13.16;37.54;95760.59;5066035;28;20661;-65
2022/03/20 11:10:00;;;;;;;11.93;9.80;;;;;;;13.33;36.34;95766.56;5070256;28;20236;-65
2022/03/20 11:12:47;;;;;;;14.00;9.83;;;;;;;13.05;35.79;95765.72;5066821;28;20259;-65
2022/03/20 11:15:34;;;;;;;12.83;10.57;;;;;;;12.86;35.82;95764.09;5075035;28;20217;-65
2022/03/20 11:18:22;;;;;;;14.53;10.63;;;;;;;12.89;36.29;95759.69;5067828;28;20280;-65
2022/03/20 11:21:10;;;;;;;13.47;10.60;;;;;;;13.15;36.24;95772.00;5050214;28;20400;-65
2022/03/20 11:23:58;;;;;;;13.47;10.33;;;;;;;13.14;36.04;95773.22;5067204;28;20198;-65
2022/03/20 11:26:48;;;;;;;11.60;10.27;;;;;;;13.33;36.43;95758.34;5078588;28;20413;-65
2022/03/20 11:29:51;;;;;;;14.37;11.03;;;;;;;13.52;35.33;95759.91;5072218;28;20243;-64
2022/03/20 11:32:38;;;;;;;14.83;10.93;;;;;;;13.17;34.92;95744.88;5068221;28;20226;-65
2022/03/20 11:35:30;;;;;;;14.63;10.23;;;;;;;13.16;34.74;95757.84;5057266;28;20201;-65
2022/03/20 11:38:24;;;;;;;12.20;10.00;;;;;;;13.10;34.90;95751.41;5052151;28;20189;-65
2022/03/20 11:41:17;;;;;;;12.10;10.13;;;;;;;13.39;35.19;95753.75;5060932;28;20221;-65
2022/03/20 11:44:14;;;;;;;10.33;9.33;;;;;;;13.11;34.98;95760.41;5075872;28;20197;-65
2022/03/20 11:47:16;;;;;;;12.33;10.47;;;;;;;13.12;34.84;95756.44;5065166;28;20216;-65
2022/03/20 11:50:22;;;;;;;10.00;8.97;;;;;;;13.48;34.63;95756.53;5066733;28;20220;-65
2022/03/20 11:53:09;;;;;;;12.67;10.57;;;;;;;13.39;34.29;95745.53;5057166;28;20212;-65
2022/03/20 11:55:55;;;;;;;13.33;10.10;;;;;;;13.59;35.17;95743.16;5066930;28;20190;-65
2022/03/20 11:58:41;;;;;;;13.00;9.77;;;;;;;13.70;33.29;95742.66;5088860;28;20243;-66
2022/03/20 12:01:27;;;;;;;14.20;10.47;;;;;;;13.49;33.10;95741.56;5073493;28;20218;-64
2022/03/20 12:04:21;;;;;;;12.93;9.97;;;;;;;13.40;32.16;95744.31;5050507;28;20221;-65
2022/03/20 12:07:18;;;;;;;12.50;9.13;;;;;;;13.59;33.13;95747.84;5063355;28;20367;-66
2022/03/20 12:10:24;;;;;;;13.03;9.37;;;;;;;13.76;32.87;95741.59;5083524;28;20716;-65
2022/03/20 12:13:23;;;;;;;11.97;9.60;;;;;;;13.32;32.88;95743.84;5072914;28;20639;-64
2022/03/20 12:16:09;;;;;;;12.57;10.17;;;;;;;13.80;34.16;95738.72;5057944;28;20194;-65
2022/03/20 12:19:13;;;;;;;14.20;11.07;;;;;;;13.34;34.06;95754.38;5079444;28;20277;-64
2022/03/20 12:22:03;;;;;;;14.23;11.63;;;;;;;13.23;35.22;95748.56;5061065;28;20216;-64
2022/03/20 12:24:54;;;;;;;15.87;10.63;;;;;;;13.42;35.10;95744.66;5067500;28;20264;-64
2022/03/20 12:27:40;;;;;;;13.50;10.47;;;;;;;13.74;36.27;95741.31;5070003;28;20193;-65
2022/03/20 12:30:27;;;;;;;12.30;10.47;;;;;;;14.05;35.05;95746.66;5043016;28;20702;-64
2022/03/20 12:33:24;;;;;;;13.77;10.73;;;;;;;13.59;34.55;95732.16;5056263;28;20265;-64
2022/03/20 12:36:27;;;;;;;13.13;10.37;;;;;;;13.45;34.77;95738.25;5066026;28;20202;-64
2022/03/20 12:39:13;;;;;;;15.00;10.37;;;;;;;13.54;34.03;95727.25;5067010;28;20564;-64
2022/03/20 12:41:59;;;;;;;12.60;10.43;;;;;;;13.36;33.97;95732.72;5077566;28;20205;-65
2022/03/20 12:44:52;;;;;;;12.37;10.70;;;;;;;13.32;34.48;95734.84;5051304;28;20293;-64
2022/03/20 12:47:38;;;;;;;11.30;9.17;;;;;;;13.41;33.43;95732.13;5071070;28;20197;-65
2022/03/20 12:50:30;;;;;;;14.20;10.50;;;;;;;13.49;33.58;95732.59;5082284;28;20220;-65
2022/03/20 12:53:21;;;;;;;14.70;10.13;;;;;;;13.62;33.39;95730.47;5054406;28;20581;-65
2022/03/20 12:59:00;;;;;;;11.63;8.83;;;;;;;13.60;32.63;95739.16;5075972;28;20185;-64
2022/03/20 13:01:45;;;;;;;13.07;9.20;;;;;;;13.74;33.23;95729.56;5071581;28;20765;-64
2022/03/20 13:04:31;;;;;;;13.47;8.97;;;;;;;13.59;32.45;95728.66;5072238;28;20194;-65
2022/03/20 13:07:24;;;;;;;22.07;10.23;;;;;;;13.71;33.17;95727.75;5053954;28;20273;-65
2022/03/20 13:10:13;;;;;;;12.17;10.03;;;;;;;13.72;33.88;95740.25;5060018;28;20239;-65
2022/03/20 13:13:02;;;;;;;12.43;10.27;;;;;;;13.32;33.78;95719.16;5067781;28;20194;-65
2022/03/20 13:15:49;;;;;;;13.83;10.07;;;;;;;13.87;34.35;95727.41;5074364;28;20579;-64
2022/03/20 13:18:35;;;;;;;12.40;10.70;;;;;;;13.61;33.61;95723.47;5077123;28;20205;-66
2022/03/20 13:21:22;;;;;;;12.37;10.13;;;;;;;13.75;33.58;95728.34;5083717;28;20213;-65
2022/03/20 13:24:08;;;;;;;12.90;10.43;;;;;;;13.74;33.00;95727.59;5068289;28;20193;-65
2022/03/20 13:27:05;;;;;;;12.97;9.83;;;;;;;13.76;34.16;95718.91;5068370;28;20318;-65
2022/03/20 13:29:53;;;;;;;13.27;10.33;;;;;;;13.76;32.97;95727.13;5069159;28;20199;-65